Airfield :
LOGIN :

Register | Disclaimer

   EN    FR    IT 

 










Legend :    VFR   Marginal VFR   IFR   Intensive IFR   Very Intensive IFR
Visi :
Ceiling :
>= 8 km
>= 3000ft
5 to 8 km
1000 to 3000 ft
1500m to 5 km
500 to 1000 ft
800 to 1500m
200 to 500 ft
< 800m
< 200 ft
Symbols :   Thunderstorms  Fog  Heavy snow  Heavy precipitations  Wind > 20 kt
SIGMETs :     Misc.  Thunderstorms  Icing  Turbulence  Mountain Waves  Volcanic Ashes







- Airport Elevation : 82 ft
- IATA code : QIE
- Download approach charts


LFMI - Istres

CURRENT METAR :
  • 281230Z AUTO 28010KT 260V320 CAVOK 33/06 Q1014 NOSIG

EXPIRED METARs :
  • 281200Z AUTO 29010KT 260V340 CAVOK 31/06 Q1014 NOSIG
  • 281130Z AUTO 28011KT 230V350 CAVOK 32/08 Q1014 NOSIG
  • 281100Z AUTO 28010G22KT 240V330 CAVOK 32/09 Q1014 TEMPO 26015KT
  • 281030Z AUTO 29011G22KT 270V350 CAVOK 31/10 Q1014 TEMPO 26015KT
  • 281000Z AUTO 32010KT 280V350 CAVOK 30/11 Q1014 NOSIG

TAF TAF LFMI
Valid from the 28 at 09:00 until the 29 at 09:00 UTC


280800Z 2809/2909 32012KT CAVOK
TEMPO 2811/2817 26015KT
BECMG 2820/2823 VRB04KT
BECMG 2907/2909 18010KT
No reported NOTAMs for that airfield.



MET'MAP, your aeronautical weather chart ! - Copyright ORBIFLY December 2007 - Disclaimer

ORBIFLY MET'MAP TEAM :

Programming & Development : Alexandra Zaïnal
Concept & Development : Baudouin d'Aumeries
Co-Development & Prog : Marc-Olivier Méhu
Technical & hardware support : Manuel Goepfert

Contact : metmap@orbifly.com




SOURCES & CREDITS :

   NOAA